Time;durP1;ratioP1;P1;durP2;ratioP2;P2;SDS_P1;SDS_P2;PMS_P1;PMS_P2;Temp;Humidity;BMP_temperature;BMP_pressure;BME280_temperature;BME280_humidity;BME280_pressure;Samples;Min_cycle;Max_cycle;Signal;HPM_P1;HPM_P2
2022/12/08 00:00:43;;;;;;;9.07;6.50;;;;;;;;;;5118481;27;20469;-74
2022/12/08 00:03:23;;;;;;;10.20;6.17;;;;;;;;;;5119114;27;20858;-72
2022/12/08 00:11:35;;;;;;;8.67;6.27;;;;;;;;;;5055388;28;20542;-73
2022/12/08 00:14:03;;;;;;;11.03;5.40;;;;;;;;;;5056611;28;20469;-73
2022/12/08 00:16:30;;;;;;;11.27;6.83;;;;;;;;;;5083590;27;20455;-73
2022/12/08 00:18:57;;;;;;;8.97;5.60;;;;;;;;;;5118205;27;20874;-73
2022/12/08 00:21:24;;;;;;;6.23;4.50;;;;;;;;;;5118616;27;20458;-73
2022/12/08 00:23:54;;;;;;;8.27;5.97;;;;;;;;;;5118968;27;20473;-73
2022/12/08 00:26:24;;;;;;;8.03;4.70;;;;;;;;;;5118256;27;20462;-73
2022/12/08 00:28:54;;;;;;;9.73;7.17;;;;;;;;;;5118557;27;20455;-73
2022/12/08 00:31:21;;;;;;;11.53;6.50;;;;;;;;;;5117823;27;20447;-73
2022/12/08 00:33:48;;;;;;;10.20;5.70;;;;;;;;;;5119024;27;20522;-74
2022/12/08 00:36:18;;;;;;;9.00;6.20;;;;;;;;;;5117478;27;20898;-73
2022/12/08 00:38:46;;;;;;;5.97;3.50;;;;;;;;;;5117452;27;20545;-73
2022/12/08 00:41:15;;;;;;;6.33;4.20;;;;;;;;;;5118062;27;20458;-73
2022/12/08 00:43:42;;;;;;;8.20;5.90;;;;;;;;;;5117919;27;20494;-74
2022/12/08 00:46:09;;;;;;;8.43;5.23;;;;;;;;;;5117597;27;20465;-73
2022/12/08 00:48:36;;;;;;;8.30;5.77;;;;;;;;;;5118140;27;20474;-73
2022/12/08 00:51:03;;;;;;;6.03;4.43;;;;;;;;;;5117874;27;20491;-73
2022/12/08 00:53:34;;;;;;;11.13;4.70;;;;;;;;;;5117390;27;20538;-73
2022/12/08 00:56:02;;;;;;;6.23;3.90;;;;;;;;;;5118283;27;20456;-73
2022/12/08 00:58:31;;;;;;;6.53;4.07;;;;;;;;;;5110898;27;20448;-73
2022/12/08 01:00:58;;;;;;;8.63;4.30;;;;;;;;;;5097827;28;20441;-73
2022/12/08 01:03:25;;;;;;;6.40;4.40;;;;;;;;;;5098020;28;20478;-73
2022/12/08 01:05:54;;;;;;;5.37;3.90;;;;;;;;;;5097590;28;21040;-72
2022/12/08 01:08:21;;;;;;;6.47;3.27;;;;;;;;;;5097673;28;20447;-73
2022/12/08 01:10:48;;;;;;;5.73;3.97;;;;;;;;;;5097775;28;20895;-73
2022/12/08 01:13:15;;;;;;;5.27;3.60;;;;;;;;;;5096948;28;20473;-73
2022/12/08 01:15:43;;;;;;;5.73;3.30;;;;;;;;;;5099358;28;20580;-72
2022/12/08 01:18:11;;;;;;;7.33;4.03;;;;;;;;;;5117485;27;20546;-72
2022/12/08 01:20:41;;;;;;;6.87;3.30;;;;;;;;;;5117718;27;20868;-72
2022/12/08 01:23:08;;;;;;;6.70;3.80;;;;;;;;;;5118286;27;20473;-73
2022/12/08 01:25:42;;;;;;;6.27;3.73;;;;;;;;;;5117845;27;20447;-73
2022/12/08 01:28:09;;;;;;;7.83;5.07;;;;;;;;;;5117635;27;20466;-73
2022/12/08 01:30:39;;;;;;;4.97;2.00;;;;;;;;;;5116834;27;20569;-73
2022/12/08 01:33:07;;;;;;;6.03;3.80;;;;;;;;;;5117800;27;20855;-73
2022/12/08 01:35:34;;;;;;;4.37;2.57;;;;;;;;;;5117327;27;21190;-72
2022/12/08 01:38:01;;;;;;;4.03;3.37;;;;;;;;;;5117411;27;20537;-72
2022/12/08 01:40:28;;;;;;;7.80;4.03;;;;;;;;;;5117559;27;20911;-73
2022/12/08 01:42:55;;;;;;;3.80;3.03;;;;;;;;;;5117270;27;20905;-73
2022/12/08 01:45:26;;;;;;;5.10;3.87;;;;;;;;;;5117924;27;20875;-72
2022/12/08 01:47:55;;;;;;;5.63;3.70;;;;;;;;;;5117892;27;20512;-73
2022/12/08 01:50:27;;;;;;;3.90;2.57;;;;;;;;;;5117608;27;20523;-73
2022/12/08 01:52:56;;;;;;;6.80;3.77;;;;;;;;;;5118316;27;20878;-73
2022/12/08 01:55:26;;;;;;;5.50;3.70;;;;;;;;;;5117364;27;20531;-73
2022/12/08 01:57:56;;;;;;;4.70;2.63;;;;;;;;;;5115480;27;20486;-73
2022/12/08 02:00:23;;;;;;;4.97;2.83;;;;;;;;;;5097443;28;20547;-73
2022/12/08 02:02:55;;;;;;;4.73;3.63;;;;;;;;;;5096462;28;20868;-73
2022/12/08 02:05:25;;;;;;;10.73;3.93;;;;;;;;;;5096713;28;20459;-72
2022/12/08 02:07:52;;;;;;;6.00;3.40;;;;;;;;;;5096585;28;20467;-73
2022/12/08 02:10:23;;;;;;;3.10;2.80;;;;;;;;;;5096758;28;20521;-70
2022/12/08 02:12:52;;;;;;;5.00;3.43;;;;;;;;;;5100850;28;20454;-73
2022/12/08 02:15:19;;;;;;;5.23;4.33;;;;;;;;;;5100647;28;21076;-73
2022/12/08 02:17:54;;;;;;;7.27;3.00;;;;;;;;;;5100891;28;20483;-73
2022/12/08 02:20:28;;;;;;;3.40;2.07;;;;;;;;;;5100938;28;20523;-73
2022/12/08 02:23:01;;;;;;;3.80;2.27;;;;;;;;;;5107265;28;20454;-73
2022/12/08 02:25:35;;;;;;;6.37;3.63;;;;;;;;;;5121101;27;20453;-73
2022/12/08 02:28:11;;;;;;;4.60;3.20;;;;;;;;;;5120726;27;20545;-73
2022/12/08 02:30:47;;;;;;;7.33;3.47;;;;;;;;;;5120446;27;20746;-73
2022/12/08 02:33:32;;;;;;;2.97;2.10;;;;;;;;;;5120577;27;20563;-74
2022/12/08 02:36:02;;;;;;;4.23;2.60;;;;;;;;;;5120172;27;20456;-73
2022/12/08 02:38:36;;;;;;;3.30;2.60;;;;;;;;;;5120368;27;20462;-73
2022/12/08 02:41:06;;;;;;;3.93;2.80;;;;;;;;;;5119702;27;20450;-73
2022/12/08 02:43:36;;;;;;;4.43;2.83;;;;;;;;;;5120197;27;20469;-73
2022/12/08 02:46:06;;;;;;;5.87;3.03;;;;;;;;;;5120552;27;20722;-73
2022/12/08 02:48:33;;;;;;;2.80;2.23;;;;;;;;;;5120815;27;20454;-73
2022/12/08 02:51:01;;;;;;;4.93;2.80;;;;;;;;;;5121535;27;20765;-74
2022/12/08 02:53:30;;;;;;;4.40;3.53;;;;;;;;;;5120310;27;20457;-73
2022/12/08 02:56:02;;;;;;;6.70;3.60;;;;;;;;;;5121052;27;20725;-73
2022/12/08 02:58:40;;;;;;;5.40;2.77;;;;;;;;;;5119736;27;20730;-73
2022/12/08 03:01:12;;;;;;;5.10;2.90;;;;;;;;;;5119939;27;20665;-73
2022/12/08 03:03:54;;;;;;;5.97;2.60;;;;;;;;;;5119877;27;20525;-73
2022/12/08 03:06:25;;;;;;;3.83;3.07;;;;;;;;;;5119713;27;20486;-72
2022/12/08 03:08:56;;;;;;;7.77;4.00;;;;;;;;;;5121089;27;20446;-72
2022/12/08 03:11:29;;;;;;;4.87;2.80;;;;;;;;;;5121314;27;20455;-72
2022/12/08 03:13:58;;;;;;;4.60;2.67;;;;;;;;;;5120564;27;20870;-72
2022/12/08 03:16:25;;;;;;;3.50;2.73;;;;;;;;;;5121551;27;20846;-73
2022/12/08 03:18:55;;;;;;;4.27;2.90;;;;;;;;;;5120418;27;20512;-72
2022/12/08 03:21:22;;;;;;;6.03;2.83;;;;;;;;;;5120273;27;20525;-73
2022/12/08 03:23:52;;;;;;;6.67;4.50;;;;;;;;;;5120798;27;20453;-73
2022/12/08 03:26:23;;;;;;;5.77;3.77;;;;;;;;;;5120703;27;20526;-73
2022/12/08 03:28:50;;;;;;;6.83;2.30;;;;;;;;;;5120516;27;20451;-74
2022/12/08 03:31:18;;;;;;;4.47;2.23;;;;;;;;;;5119632;27;20581;-73
2022/12/08 03:33:47;;;;;;;6.90;3.20;;;;;;;;;;5120562;27;20486;-73
2022/12/08 03:36:15;;;;;;;7.23;1.97;;;;;;;;;;5119846;27;20449;-74
2022/12/08 03:38:45;;;;;;;4.80;3.50;;;;;;;;;;5119826;27;20446;-73
2022/12/08 03:41:19;;;;;;;3.60;2.60;;;;;;;;;;5119978;27;20463;-73
2022/12/08 03:43:47;;;;;;;5.83;2.97;;;;;;;;;;5120230;27;20462;-73
2022/12/08 03:46:14;;;;;;;5.03;3.40;;;;;;;;;;5119154;27;20458;-73
2022/12/08 03:48:41;;;;;;;3.90;3.20;;;;;;;;;;5120707;27;20461;-74
2022/12/08 03:51:08;;;;;;;3.67;2.77;;;;;;;;;;5119416;27;20494;-74
2022/12/08 03:53:36;;;;;;;5.37;3.63;;;;;;;;;;5120577;27;20755;-73
2022/12/08 03:56:04;;;;;;;3.10;2.80;;;;;;;;;;5120226;27;20742;-73
2022/12/08 03:58:31;;;;;;;3.10;2.37;;;;;;;;;;5120654;27;20451;-73
2022/12/08 04:00:58;;;;;;;6.23;2.73;;;;;;;;;;5119617;27;20452;-74
2022/12/08 04:03:28;;;;;;;2.90;1.60;;;;;;;;;;5119803;27;20471;-74
2022/12/08 04:05:58;;;;;;;4.17;2.47;;;;;;;;;;5119745;27;20447;-74
2022/12/08 04:08:25;;;;;;;4.57;3.37;;;;;;;;;;5119151;27;20524;-73
2022/12/08 04:10:55;;;;;;;6.77;3.20;;;;;;;;;;5119520;27;20479;-73
2022/12/08 04:13:22;;;;;;;5.10;3.60;;;;;;;;;;5119033;27;20501;-73
2022/12/08 04:15:53;;;;;;;6.40;4.03;;;;;;;;;;5118356;27;20451;-74
2022/12/08 04:18:20;;;;;;;5.40;2.67;;;;;;;;;;5119658;27;20467;-73
2022/12/08 04:20:47;;;;;;;2.63;2.00;;;;;;;;;;5118885;27;20457;-73
2022/12/08 04:23:14;;;;;;;7.30;4.23;;;;;;;;;;5119923;27;20469;-73
2022/12/08 04:25:41;;;;;;;7.53;3.17;;;;;;;;;;5117682;27;20430;-73
2022/12/08 04:28:08;;;;;;;7.77;4.57;;;;;;;;;;5118304;27;20466;-72
2022/12/08 04:30:35;;;;;;;6.00;4.53;;;;;;;;;;5118779;27;20529;-73
2022/12/08 04:33:06;;;;;;;6.13;2.27;;;;;;;;;;5117510;27;20469;-73
2022/12/08 04:35:35;;;;;;;6.30;4.70;;;;;;;;;;5119189;27;20454;-73
2022/12/08 04:38:02;;;;;;;5.73;4.27;;;;;;;;;;5118068;27;20796;-73
2022/12/08 04:40:29;;;;;;;10.20;4.50;;;;;;;;;;5119624;27;20524;-73
2022/12/08 04:42:56;;;;;;;6.73;5.00;;;;;;;;;;5117891;27;20475;-73
2022/12/08 04:45:26;;;;;;;5.80;4.00;;;;;;;;;;5118516;27;20789;-73
2022/12/08 04:47:56;;;;;;;5.40;3.53;;;;;;;;;;5117565;27;20509;-73
2022/12/08 04:50:24;;;;;;;6.90;4.77;;;;;;;;;;5116911;27;20479;-73
2022/12/08 04:52:51;;;;;;;4.17;2.80;;;;;;;;;;5118835;27;20524;-73
2022/12/08 04:55:21;;;;;;;4.07;2.10;;;;;;;;;;5117589;27;20447;-73
2022/12/08 04:57:51;;;;;;;3.53;2.60;;;;;;;;;;5117832;27;20451;-73
2022/12/08 05:00:18;;;;;;;2.90;1.63;;;;;;;;;;5117686;27;20447;-74
2022/12/08 05:02:45;;;;;;;5.57;3.50;;;;;;;;;;5117666;27;20545;-74
2022/12/08 05:05:12;;;;;;;2.30;1.90;;;;;;;;;;5117590;27;20743;-74
2022/12/08 05:07:40;;;;;;;4.00;2.80;;;;;;;;;;5117914;27;20457;-74
2022/12/08 05:10:08;;;;;;;3.67;2.63;;;;;;;;;;5117142;27;20536;-74
2022/12/08 05:12:35;;;;;;;2.83;1.67;;;;;;;;;;5117156;27;20443;-74
2022/12/08 05:15:02;;;;;;;3.90;2.73;;;;;;;;;;5118866;27;20447;-74
2022/12/08 05:17:29;;;;;;;4.57;3.43;;;;;;;;;;5116552;27;20450;-74
2022/12/08 05:19:56;;;;;;;3.43;2.63;;;;;;;;;;5117215;27;20474;-74
2022/12/08 05:22:32;;;;;;;3.23;2.30;;;;;;;;;;5116135;27;20503;-74
2022/12/08 05:25:00;;;;;;;3.90;3.27;;;;;;;;;;5117698;27;20538;-74
2022/12/08 05:27:27;;;;;;;5.30;3.20;;;;;;;;;;5116894;27;20511;-74
2022/12/08 05:29:55;;;;;;;7.93;3.67;;;;;;;;;;5116346;27;20533;-74
2022/12/08 05:32:22;;;;;;;6.57;4.23;;;;;;;;;;5117079;27;20451;-73
2022/12/08 05:34:51;;;;;;;2.00;1.50;;;;;;;;;;5117171;27;20859;-74
2022/12/08 05:37:20;;;;;;;5.03;3.47;;;;;;;;;;5116088;27;20470;-74
2022/12/08 05:39:50;;;;;;;4.00;3.10;;;;;;;;;;5118238;27;20459;-74
2022/12/08 05:42:18;;;;;;;5.47;3.33;;;;;;;;;;5116552;27;20504;-73
2022/12/08 05:44:45;;;;;;;5.57;3.47;;;;;;;;;;5116796;27;20966;-74
2022/12/08 05:47:12;;;;;;;6.67;2.53;;;;;;;;;;5115592;27;20462;-74
2022/12/08 05:49:39;;;;;;;3.40;2.00;;;;;;;;;;5116198;27;20486;-74
2022/12/08 05:52:09;;;;;;;4.00;2.40;;;;;;;;;;5104835;28;20729;-74
2022/12/08 05:54:36;;;;;;;4.00;2.83;;;;;;;;;;5096741;28;20459;-74
2022/12/08 05:57:07;;;;;;;2.50;1.70;;;;;;;;;;5096168;28;20745;-75
2022/12/08 05:59:35;;;;;;;4.77;3.23;;;;;;;;;;5095537;28;20919;-74
2022/12/08 06:02:02;;;;;;;2.90;2.23;;;;;;;;;;5095046;28;20447;-74
2022/12/08 06:04:30;;;;;;;5.20;2.50;;;;;;;;;;5096426;28;20462;-74
2022/12/08 06:06:57;;;;;;;3.10;2.80;;;;;;;;;;5094640;28;20668;-74
2022/12/08 06:09:27;;;;;;;4.70;2.87;;;;;;;;;;5093877;28;20883;-75
2022/12/08 06:11:58;;;;;;;4.80;2.50;;;;;;;;;;5094458;28;20787;-74
2022/12/08 06:14:31;;;;;;;4.10;2.60;;;;;;;;;;5093805;28;20447;-74
2022/12/08 06:17:03;;;;;;;4.27;2.87;;;;;;;;;;5100655;28;20463;-76
2022/12/08 06:19:32;;;;;;;1.80;1.20;;;;;;;;;;5095142;28;20844;-74
2022/12/08 06:21:59;;;;;;;3.73;1.63;;;;;;;;;;5093969;28;20444;-74
2022/12/08 06:24:29;;;;;;;3.47;2.37;;;;;;;;;;5094518;28;20508;-74
2022/12/08 06:26:56;;;;;;;4.20;2.60;;;;;;;;;;5094421;28;20488;-74
2022/12/08 06:29:23;;;;;;;3.60;2.50;;;;;;;;;;5092568;28;20475;-74
2022/12/08 06:31:53;;;;;;;4.50;3.00;;;;;;;;;;5092903;28;20513;-74
2022/12/08 06:34:23;;;;;;;5.10;2.33;;;;;;;;;;5094132;28;20453;-74
2022/12/08 06:36:50;;;;;;;3.67;2.67;;;;;;;;;;5095018;28;20746;-74
2022/12/08 06:39:18;;;;;;;4.40;3.00;;;;;;;;;;5093637;28;20448;-74
2022/12/08 06:44:29;;;;;;;3.70;2.70;;;;;;;;;;5113141;27;20507;-75
2022/12/08 06:46:56;;;;;;;3.83;3.43;;;;;;;;;;5098272;27;21048;-74
2022/12/08 06:49:30;;;;;;;4.33;2.67;;;;;;;;;;5094568;28;20516;-74
2022/12/08 06:51:57;;;;;;;3.20;2.23;;;;;;;;;;5102205;27;20460;-73
2022/12/08 06:54:24;;;;;;;3.50;2.60;;;;;;;;;;5113485;27;20833;-74
2022/12/08 06:56:56;;;;;;;5.23;3.00;;;;;;;;;;5110148;27;20565;-74
2022/12/08 06:59:33;;;;;;;5.70;3.40;;;;;;;;;;5108698;27;20465;-74
2022/12/08 07:02:04;;;;;;;3.57;2.47;;;;;;;;;;5117710;27;20468;-73
2022/12/08 07:04:33;;;;;;;4.20;2.37;;;;;;;;;;5117370;27;20447;-76
2022/12/08 07:07:09;;;;;;;4.00;2.70;;;;;;;;;;5116749;27;20462;-73
2022/12/08 07:09:40;;;;;;;4.50;3.33;;;;;;;;;;5109766;27;20461;-72
2022/12/08 07:12:09;;;;;;;5.03;3.63;;;;;;;;;;5110530;28;20531;-74
2022/12/08 07:14:39;;;;;;;3.67;2.97;;;;;;;;;;5116553;27;20815;-74
2022/12/08 07:17:11;;;;;;;5.03;2.70;;;;;;;;;;5116522;27;20536;-75
2022/12/08 07:19:42;;;;;;;4.00;3.07;;;;;;;;;;5118197;27;20454;-75
2022/12/08 07:22:11;;;;;;;3.00;2.70;;;;;;;;;;5117543;27;20454;-74
2022/12/08 07:24:41;;;;;;;4.40;3.30;;;;;;;;;;5117789;27;20451;-73
2022/12/08 07:27:11;;;;;;;6.37;4.13;;;;;;;;;;5116651;27;20454;-72
2022/12/08 07:29:39;;;;;;;6.10;4.37;;;;;;;;;;5117686;27;20458;-74
2022/12/08 07:32:09;;;;;;;5.80;3.90;;;;;;;;;;5116541;27;20577;-74
2022/12/08 07:34:36;;;;;;;4.50;3.00;;;;;;;;;;5118008;27;20508;-73
2022/12/08 07:37:06;;;;;;;5.60;4.07;;;;;;;;;;5118195;27;20437;-73
2022/12/08 07:39:34;;;;;;;4.00;2.80;;;;;;;;;;5118305;27;20451;-73
2022/12/08 07:42:04;;;;;;;5.90;4.70;;;;;;;;;;5119828;27;20515;-73
2022/12/08 07:44:32;;;;;;;4.63;3.50;;;;;;;;;;5102668;28;20464;-73
2022/12/08 07:46:59;;;;;;;6.10;3.60;;;;;;;;;;5117238;27;20552;-73
2022/12/08 07:49:28;;;;;;;7.87;4.90;;;;;;;;;;5116782;27;20446;-74
2022/12/08 07:51:57;;;;;;;7.50;4.77;;;;;;;;;;5097024;27;20811;-74
2022/12/08 07:54:32;;;;;;;6.20;5.47;;;;;;;;;;5098043;27;20460;-74
2022/12/08 07:57:18;;;;;;;4.43;3.53;;;;;;;;;;5099080;27;21036;-75
2022/12/08 07:59:46;;;;;;;4.33;3.27;;;;;;;;;;5108212;27;20497;-74
2022/12/08 08:02:21;;;;;;;95.93;14.07;;;;;;;;;;5109182;27;20863;-73
2022/12/08 08:07:40;;;;;;;6.83;4.23;;;;;;;;;;5103811;27;20462;-74
2022/12/08 08:10:14;;;;;;;10.77;4.13;;;;;;;;;;5116289;27;20498;-75
2022/12/08 08:12:56;;;;;;;8.63;5.50;;;;;;;;;;5111916;27;20458;-74
2022/12/08 08:15:26;;;;;;;10.03;6.90;;;;;;;;;;5098364;28;20483;-74
2022/12/08 08:17:53;;;;;;;8.07;5.60;;;;;;;;;;5102454;27;20552;-73
2022/12/08 08:20:24;;;;;;;6.03;4.50;;;;;;;;;;5103370;28;20475;-72
2022/12/08 08:26:06;;;;;;;8.97;5.57;;;;;;;;;;5098189;28;20554;-72
2022/12/08 08:28:40;;;;;;;8.60;5.40;;;;;;;;;;5102013;27;20486;-73
2022/12/08 08:31:30;;;;;;;11.03;6.57;;;;;;;;;;5108492;27;20477;-72
2022/12/08 08:34:03;;;;;;;7.63;5.80;;;;;;;;;;5112080;27;20596;-72
2022/12/08 08:36:34;;;;;;;9.10;6.77;;;;;;;;;;5111135;27;20462;-72
2022/12/08 08:39:01;;;;;;;11.13;7.80;;;;;;;;;;5098416;28;20455;-73
2022/12/08 08:41:44;;;;;;;9.90;7.73;;;;;;;;;;5107674;27;20481;-72
2022/12/08 08:44:25;;;;;;;11.07;7.80;;;;;;;;;;5113362;27;20955;-73
2022/12/08 08:47:14;;;;;;;9.33;6.70;;;;;;;;;;5101313;27;20743;-73
2022/12/08 08:49:46;;;;;;;13.17;7.50;;;;;;;;;;5111679;27;20487;-73
2022/12/08 08:52:13;;;;;;;7.17;6.30;;;;;;;;;;5110023;27;20512;-73
2022/12/08 08:54:40;;;;;;;8.93;6.37;;;;;;;;;;5115620;27;20543;-75
2022/12/08 08:57:14;;;;;;;15.53;7.70;;;;;;;;;;5107760;27;20586;-71
2022/12/08 08:59:42;;;;;;;14.33;9.17;;;;;;;;;;5096070;28;21012;-74
2022/12/08 09:02:24;;;;;;;11.33;7.43;;;;;;;;;;5095453;28;20478;-74
2022/12/08 09:04:54;;;;;;;7.93;6.70;;;;;;;;;;5111739;27;20475;-74
2022/12/08 09:07:21;;;;;;;19.10;14.90;;;;;;;;;;5115480;27;20946;-73
2022/12/08 09:09:49;;;;;;;11.23;8.60;;;;;;;;;;5099909;28;20490;-73
2022/12/08 09:12:16;;;;;;;7.57;6.80;;;;;;;;;;5106289;27;20502;-73
2022/12/08 09:14:44;;;;;;;12.23;7.50;;;;;;;;;;5102375;27;20503;-72
2022/12/08 09:17:22;;;;;;;8.40;6.30;;;;;;;;;;5114356;27;20458;-73
2022/12/08 09:20:00;;;;;;;9.00;6.10;;;;;;;;;;5106443;27;21038;-74
2022/12/08 09:22:28;;;;;;;9.07;6.60;;;;;;;;;;5108963;27;20463;-73
2022/12/08 09:25:03;;;;;;;10.47;6.90;;;;;;;;;;5112372;27;20842;-73
2022/12/08 09:27:35;;;;;;;9.67;6.83;;;;;;;;;;5099484;27;20470;-73
2022/12/08 09:30:07;;;;;;;9.27;6.53;;;;;;;;;;5095135;28;20491;-73
2022/12/08 09:32:41;;;;;;;9.80;5.97;;;;;;;;;;5098506;28;20870;-73
2022/12/08 09:35:14;;;;;;;9.07;6.23;;;;;;;;;;5097416;28;20450;-74
2022/12/08 09:37:51;;;;;;;11.90;6.80;;;;;;;;;;5094289;28;20464;-73
2022/12/08 09:40:23;;;;;;;9.30;7.10;;;;;;;;;;5096855;28;20462;-72
2022/12/08 09:43:08;;;;;;;14.77;8.63;;;;;;;;;;5110376;27;20490;-72
2022/12/08 09:45:37;;;;;;;8.90;6.30;;;;;;;;;;5109744;27;20912;-71
2022/12/08 09:48:14;;;;;;;9.87;6.37;;;;;;;;;;5105985;27;20464;-71
2022/12/08 09:51:04;;;;;;;10.10;6.70;;;;;;;;;;5102421;27;20559;-73
2022/12/08 09:53:45;;;;;;;11.80;6.10;;;;;;;;;;5109126;27;20467;-74
2022/12/08 09:56:14;;;;;;;11.27;7.30;;;;;;;;;;5110331;27;20467;-73
2022/12/08 09:59:15;;;;;;;;;;;;;;;;;;;;;
2022/12/08 10:11:01;;;;;;;10.33;6.60;;;;;;;;;;5099124;28;20467;-72
2022/12/08 10:16:51;;;;;;;10.20;6.33;;;;;;;;;;5067267;28;20525;-73
2022/12/08 10:19:23;;;;;;;13.87;8.87;;;;;;;;;;5067887;28;20512;-72
2022/12/08 10:21:55;;;;;;;13.00;8.20;;;;;;;;;;5102723;27;20460;-73
2022/12/08 10:24:27;;;;;;;15.17;8.23;;;;;;;;;;5095030;28;20479;-73
2022/12/08 10:26:56;;;;;;;11.87;8.10;;;;;;;;;;5103681;27;20546;-73
2022/12/08 10:29:24;;;;;;;10.47;7.17;;;;;;;;;;5097257;28;20529;-73
2022/12/08 10:31:58;;;;;;;14.40;6.90;;;;;;;;;;5097260;28;20508;-74
2022/12/08 10:34:34;;;;;;;7.10;3.23;;;;;;;;;;5102624;28;20467;-73
2022/12/08 10:37:10;;;;;;;10.60;7.10;;;;;;;;;;5112527;27;20529;-73
2022/12/08 10:42:46;;;;;;;11.37;5.80;;;;;;;;;;5048472;28;20811;-71
2022/12/08 10:45:28;;;;;;;5.60;3.20;;;;;;;;;;5101654;28;20472;-73
2022/12/08 10:48:03;;;;;;;4.53;3.23;;;;;;;;;;5099042;28;20478;-72
2022/12/08 10:50:44;;;;;;;8.90;5.40;;;;;;;;;;5098470;28;20831;-73
2022/12/08 10:59:24;;;;;;;6.97;3.80;;;;;;;;;;5014972;28;20457;-74
2022/12/08 11:02:05;;;;;;;6.60;3.80;;;;;;;;;;4997037;28;21028;-74
2022/12/08 11:04:47;;;;;;;6.93;3.83;;;;;;;;;;5002113;28;20525;-75
2022/12/08 11:07:26;;;;;;;3.97;2.97;;;;;;;;;;5072247;27;20560;-73
2022/12/08 11:16:30;;;;;;;6.17;2.50;;;;;;;;;;5110278;27;20535;-73
2022/12/08 11:22:04;;;;;;;4.23;2.37;;;;;;;;;;5116964;27;20451;-73
2022/12/08 11:24:46;;;;;;;2.50;1.80;;;;;;;;;;5116332;27;20483;-74
2022/12/08 11:27:29;;;;;;;3.87;1.80;;;;;;;;;;5119714;27;20439;-72
2022/12/08 11:42:56;;;;;;;2.30;1.53;;;;;;;;;;5036938;28;20469;-74
2022/12/08 11:45:55;;;;;;;4.80;2.10;;;;;;;;;;5108738;27;20454;-73
2022/12/08 11:48:32;;;;;;;2.03;0.93;;;;;;;;;;5117878;27;20447;-73
2022/12/08 11:51:29;;;;;;;2.50;1.60;;;;;;;;;;5114359;27;20501;-73
2022/12/08 11:54:09;;;;;;;2.87;1.87;;;;;;;;;;5117280;27;20439;-73
2022/12/08 11:56:43;;;;;;;5.03;2.47;;;;;;;;;;5116967;27;20443;-72
2022/12/08 11:59:25;;;;;;;3.77;2.40;;;;;;;;;;5114468;27;20552;-73
2022/12/08 12:02:02;;;;;;;2.93;1.80;;;;;;;;;;5110857;27;20523;-72
2022/12/08 12:04:38;;;;;;;2.17;1.30;;;;;;;;;;5116881;27;20462;-74
2022/12/08 12:10:28;;;;;;;2.20;1.63;;;;;;;;;;5068324;27;20470;-73
2022/12/08 12:13:09;;;;;;;3.00;0.90;;;;;;;;;;5114727;27;20446;-75
2022/12/08 12:15:56;;;;;;;3.83;2.20;;;;;;;;;;5112761;27;20459;-74
2022/12/08 12:18:47;;;;;;;;;;;;;;;;;;;;;
2022/12/08 12:21:26;;;;;;;1.57;0.80;;;;;;;;;;5115997;27;20454;-73
2022/12/08 12:24:06;;;;;;;3.67;1.00;;;;;;;;;;5116950;27;20450;-72
2022/12/08 12:27:05;;;;;;;3.20;2.03;;;;;;;;;;5097376;28;20452;-73
2022/12/08 12:29:35;;;;;;;3.80;2.30;;;;;;;;;;5114739;27;20442;-74
2022/12/08 12:32:20;;;;;;;2.67;1.20;;;;;;;;;;5117211;27;20479;-73
2022/12/08 12:34:54;;;;;;;1.80;1.07;;;;;;;;;;5102997;27;20530;-73
2022/12/08 12:37:26;;;;;;;3.97;1.23;;;;;;;;;;5112019;27;20462;-72
2022/12/08 12:40:14;;;;;;;2.37;1.00;;;;;;;;;;5110039;27;20459;-73
2022/12/08 12:45:46;;;;;;;1.70;1.17;;;;;;;;;;5093816;27;20474;-73
2022/12/08 12:48:34;;;;;;;4.07;2.00;;;;;;;;;;5115411;27;20722;-73
2022/12/08 12:54:16;;;;;;;2.80;1.47;;;;;;;;;;5106260;27;20470;-72
2022/12/08 12:56:49;;;;;;;1.50;0.83;;;;;;;;;;5105091;27;20517;-72
2022/12/08 12:59:42;;;;;;;3.03;1.37;;;;;;;;;;5103330;28;20524;-72
2022/12/08 13:02:48;;;;;;;1.90;1.10;;;;;;;;;;5110641;27;20447;-71
2022/12/08 13:05:20;;;;;;;1.83;1.00;;;;;;;;;;5092313;28;20516;-73
2022/12/08 13:07:55;;;;;;;2.67;1.63;;;;;;;;;;5118717;27;20442;-73
2022/12/08 13:10:47;;;;;;;3.50;1.67;;;;;;;;;;5110125;28;20526;-74
2022/12/08 13:13:30;;;;;;;1.90;1.07;;;;;;;;;;5112907;27;20839;-74
2022/12/08 13:16:22;;;;;;;3.90;1.23;;;;;;;;;;5117254;27;20792;-73
2022/12/08 13:18:53;;;;;;;2.43;1.17;;;;;;;;;;5111245;27;20542;-73
2022/12/08 13:21:43;;;;;;;5.90;3.13;;;;;;;;;;5115989;27;20939;-72
2022/12/08 13:24:33;;;;;;;1.80;1.17;;;;;;;;;;5109008;27;20460;-76
2022/12/08 13:27:25;;;;;;;2.17;1.17;;;;;;;;;;5104302;28;20489;-73
2022/12/08 13:30:18;;;;;;;2.27;1.00;;;;;;;;;;5115119;27;20451;-73
2022/12/08 13:32:57;;;;;;;2.40;1.57;;;;;;;;;;5092933;27;20869;-73
2022/12/08 13:35:41;;;;;;;5.43;2.80;;;;;;;;;;5115053;27;20526;-72
2022/12/08 13:38:34;;;;;;;2.53;1.60;;;;;;;;;;5121020;27;20451;-74
2022/12/08 13:44:11;;;;;;;3.30;2.17;;;;;;;;;;5112756;27;20451;-74
2022/12/08 13:47:02;;;;;;;1.80;0.90;;;;;;;;;;5110634;27;20466;-75
2022/12/08 13:58:32;;;;;;;6.93;2.60;;;;;;;;;;5096408;28;20458;-74
2022/12/08 14:01:34;;;;;;;2.43;1.30;;;;;;;;;;5113901;27;20481;-73
2022/12/08 14:04:24;;;;;;;4.90;2.90;;;;;;;;;;5116807;27;20466;-74
2022/12/08 14:06:58;;;;;;;7.47;2.90;;;;;;;;;;5101159;28;20763;-73
2022/12/08 14:09:38;;;;;;;4.50;2.20;;;;;;;;;;5097694;28;20463;-73
2022/12/08 14:12:07;;;;;;;4.53;2.10;;;;;;;;;;5109711;28;20486;-72
2022/12/08 14:14:36;;;;;;;5.30;2.03;;;;;;;;;;5110932;27;20463;-74
2022/12/08 14:17:09;;;;;;;3.13;2.13;;;;;;;;;;5098850;28;20447;-73
2022/12/08 14:19:56;;;;;;;2.97;1.67;;;;;;;;;;5105183;27;20489;-73
2022/12/08 14:22:45;;;;;;;;;;;;;;;;;;;;;
2022/12/08 14:25:28;;;;;;;2.20;1.37;;;;;;;;;;5101816;28;20459;-72
2022/12/08 14:28:13;;;;;;;4.40;2.03;;;;;;;;;;5100617;28;20455;-73
2022/12/08 14:33:49;;;;;;;3.60;2.10;;;;;;;;;;5121469;27;20456;-72
2022/12/08 14:42:06;;;;;;;2.10;1.27;;;;;;;;;;5114316;27;20569;-71
2022/12/08 14:44:40;;;;;;;2.77;1.63;;;;;;;;;;5118026;27;20468;-74
2022/12/08 14:47:22;;;;;;;2.20;1.60;;;;;;;;;;5113119;27;20596;-73
2022/12/08 14:49:52;;;;;;;2.00;1.40;;;;;;;;;;5100779;28;20853;-74
2022/12/08 14:52:35;;;;;;;4.80;2.20;;;;;;;;;;5117233;27;20736;-72
2022/12/08 15:03:45;;;;;;;2.20;1.30;;;;;;;;;;5117042;27;20443;-72
2022/12/08 15:06:24;;;;;;;2.60;1.47;;;;;;;;;;5116799;27;20893;-74
2022/12/08 15:09:23;;;;;;;3.20;1.90;;;;;;;;;;5101123;28;20537;-74
2022/12/08 15:14:38;;;;;;;11.00;2.07;;;;;;;;;;4908803;27;4917317;-74
2022/12/08 15:17:32;;;;;;;5.80;2.20;;;;;;;;;;5077879;28;20484;-73
2022/12/08 15:20:02;;;;;;;6.20;3.83;;;;;;;;;;5077682;28;20456;-72
2022/12/08 15:22:35;;;;;;;3.53;2.30;;;;;;;;;;5091665;28;20456;-72
2022/12/08 15:25:19;;;;;;;3.43;1.93;;;;;;;;;;5087538;28;20463;-74
2022/12/08 15:28:05;;;;;;;2.67;1.87;;;;;;;;;;5075963;28;20475;-73
2022/12/08 15:30:39;;;;;;;3.20;1.57;;;;;;;;;;5076164;28;20480;-72
2022/12/08 15:33:17;;;;;;;2.90;1.90;;;;;;;;;;5076073;28;20753;-73
2022/12/08 15:35:58;;;;;;;4.63;1.97;;;;;;;;;;5076998;28;20460;-73
2022/12/08 15:38:34;;;;;;;10.77;3.40;;;;;;;;;;5076412;28;20448;-72
2022/12/08 15:41:10;;;;;;;5.17;2.57;;;;;;;;;;5074741;28;20452;-72
2022/12/08 15:43:50;;;;;;;2.30;1.57;;;;;;;;;;5080659;28;20780;-73
2022/12/08 15:46:22;;;;;;;1.67;0.93;;;;;;;;;;5077182;28;20770;-71
2022/12/08 15:49:11;;;;;;;3.23;1.60;;;;;;;;;;5080799;28;20476;-72
2022/12/08 15:51:54;;;;;;;3.30;1.83;;;;;;;;;;5078108;28;20890;-73
2022/12/08 15:54:23;;;;;;;2.40;1.20;;;;;;;;;;5088531;28;20445;-73
2022/12/08 15:56:56;;;;;;;3.03;2.53;;;;;;;;;;5078339;28;20473;-73
2022/12/08 15:59:41;;;;;;;3.60;2.20;;;;;;;;;;5077561;28;20471;-72
2022/12/08 16:02:23;;;;;;;5.50;3.00;;;;;;;;;;5081055;28;20614;-72
2022/12/08 16:04:52;;;;;;;3.20;1.70;;;;;;;;;;5074354;28;20452;-71
2022/12/08 16:07:41;;;;;;;8.07;2.30;;;;;;;;;;5088057;28;20459;-72
2022/12/08 16:10:20;;;;;;;2.43;1.53;;;;;;;;;;5085728;28;20507;-73
2022/12/08 16:15:47;;;;;;;2.93;2.00;;;;;;;;;;5083670;28;20443;-72
2022/12/08 16:18:17;;;;;;;4.10;3.00;;;;;;;;;;5095284;28;20459;-72
2022/12/08 16:20:59;;;;;;;4.20;3.30;;;;;;;;;;5073992;28;20472;-73
2022/12/08 16:26:22;;;;;;;3.77;2.77;;;;;;;;;;5075196;28;20529;-71
2022/12/08 16:28:57;;;;;;;4.93;3.13;;;;;;;;;;5075216;28;20448;-71
2022/12/08 16:31:36;;;;;;;6.43;3.33;;;;;;;;;;5075372;28;21006;-72
2022/12/08 16:34:04;;;;;;;6.33;3.73;;;;;;;;;;5090098;28;20559;-73
2022/12/08 16:36:35;;;;;;;9.10;4.00;;;;;;;;;;5075249;28;20451;-71
2022/12/08 16:39:04;;;;;;;7.40;3.90;;;;;;;;;;5075900;28;20737;-72
2022/12/08 16:44:37;;;;;;;6.37;4.43;;;;;;;;;;5080268;28;20440;-72
2022/12/08 16:47:28;;;;;;;6.97;5.00;;;;;;;;;;5074575;28;20712;-73
2022/12/08 16:50:23;;;;;;;;;;;;;;;;;;;;;
2022/12/08 16:53:09;;;;;;;5.10;3.97;;;;;;;;;;5080304;28;20483;-71
2022/12/08 16:55:45;;;;;;;6.70;5.10;;;;;;;;;;5082169;28;20915;-71
2022/12/08 16:58:19;;;;;;;7.23;5.37;;;;;;;;;;5081225;28;20902;-71
2022/12/08 17:00:47;;;;;;;11.10;6.37;;;;;;;;;;5077108;28;20455;-71
2022/12/08 17:03:20;;;;;;;7.10;4.60;;;;;;;;;;5084456;28;20463;-73
2022/12/08 17:05:50;;;;;;;9.80;5.77;;;;;;;;;;5076946;28;20453;-72
2022/12/08 17:08:18;;;;;;;8.10;5.83;;;;;;;;;;5089069;28;21012;-73
2022/12/08 17:11:05;;;;;;;8.27;6.10;;;;;;;;;;5082737;28;20780;-73